Time;durP1;ratioP1;P1;durP2;ratioP2;P2;SDS_P1;SDS_P2;PMS_P1;PMS_P2;Temp;Humidity;BMP_temperature;BMP_pressure;BME280_temperature;BME280_humidity;BME280_pressure;Samples;Min_cycle;Max_cycle;Signal;HPM_P1;HPM_P2
2023/06/20 00:04:25;;;;;;;5.38;3.13;;;;;;;19.02;56.96;94682.88;5064682;28;20082;-83
2023/06/20 00:06:50;;;;;;;6.68;3.70;;;;;;;18.90;56.52;94683.47;5045201;28;20036;-83
2023/06/20 00:09:16;;;;;;;6.78;3.60;;;;;;;18.84;57.05;94684.72;5061882;28;20058;-83
2023/06/20 00:11:41;;;;;;;11.32;3.65;;;;;;;18.64;60.06;94684.22;5061855;28;20096;-83
2023/06/20 00:14:29;;;;;;;4.32;3.30;;;;;;;18.64;59.14;94686.88;5061796;28;20091;-83
2023/06/20 00:16:58;;;;;;;8.73;3.63;;;;;;;18.78;56.83;94681.44;5079694;28;20028;-83
2023/06/20 00:19:24;;;;;;;6.25;2.83;;;;;;;18.77;57.47;94685.94;5061853;28;20075;-83
2023/06/20 00:21:49;;;;;;;6.60;3.80;;;;;;;18.58;59.14;94677.50;5045098;28;20029;-83
2023/06/20 00:24:15;;;;;;;8.93;3.95;;;;;;;18.36;62.01;94679.97;5061626;28;20036;-83
2023/06/20 00:26:40;;;;;;;9.02;3.75;;;;;;;18.37;58.99;94673.56;5061542;28;20032;-83
2023/06/20 00:29:24;;;;;;;3.85;2.80;;;;;;;18.40;60.82;94682.78;5044826;28;20028;-83
2023/06/20 00:32:08;;;;;;;6.28;3.33;;;;;;;18.49;57.34;94674.84;5079404;28;20029;-83
2023/06/20 00:34:34;;;;;;;9.77;3.50;;;;;;;18.29;63.52;94673.56;5061294;28;20107;-83
2023/06/20 00:36:59;;;;;;;8.38;3.30;;;;;;;18.28;59.21;94674.66;5061376;28;20139;-83
2023/06/20 00:39:25;;;;;;;5.30;3.20;;;;;;;18.32;60.04;94672.94;5079164;28;20039;-83
2023/06/20 00:41:50;;;;;;;5.68;3.53;;;;;;;18.27;59.76;94667.78;5061449;28;20074;-83
2023/06/20 00:44:15;;;;;;;6.93;3.58;;;;;;;18.31;60.97;94660.75;5044556;28;20036;-83
2023/06/20 00:46:41;;;;;;;6.25;3.13;;;;;;;18.41;59.76;94667.63;5069734;28;20426;-83
2023/06/20 00:52:09;;;;;;;5.30;3.38;;;;;;;18.53;56.32;94681.09;5043826;28;20039;-83
2023/06/20 00:54:35;;;;;;;6.18;3.45;;;;;;;18.54;57.26;94671.28;5041117;28;20362;-83
2023/06/20 00:59:47;;;;;;;4.75;3.20;;;;;;;18.51;58.92;94677.97;5050050;28;20059;-83
2023/06/20 01:02:14;;;;;;;8.45;3.60;;;;;;;18.49;60.73;94672.19;5035326;28;20021;-82
2023/06/20 01:04:40;;;;;;;5.97;3.53;;;;;;;18.45;60.03;94668.59;5045613;28;20039;-82
2023/06/20 01:07:28;;;;;;;7.80;3.70;;;;;;;18.55;56.56;94662.97;5052851;28;20031;-83
2023/06/20 01:10:08;;;;;;;5.50;3.03;;;;;;;18.57;59.09;94660.78;5046679;28;20093;-82
2023/06/20 01:12:47;;;;;;;6.07;3.00;;;;;;;18.60;60.88;94659.41;5043416;28;20040;-82
2023/06/20 01:15:21;;;;;;;6.65;3.78;;;;;;;18.60;58.55;94660.19;5058087;28;20039;-82
2023/06/20 01:17:58;;;;;;;4.68;3.13;;;;;;;18.47;63.28;94658.47;5040733;28;20044;-83
2023/06/20 01:20:27;;;;;;;7.47;3.70;;;;;;;18.46;62.71;94654.25;5041021;28;20099;-82
2023/06/20 01:23:12;;;;;;;6.82;3.50;;;;;;;18.48;63.94;94657.38;5040534;28;20024;-83
2023/06/20 01:25:47;;;;;;;5.85;3.13;;;;;;;18.41;64.54;94660.47;5024142;28;20032;-83
2023/06/20 01:28:36;;;;;;;5.63;3.25;;;;;;;18.29;65.35;94655.00;5040782;28;20025;-83
2023/06/20 01:31:11;;;;;;;4.97;3.13;;;;;;;18.33;63.14;94661.22;5024249;28;20025;-82
2023/06/20 01:34:16;;;;;;;7.03;3.50;;;;;;;18.41;59.37;94659.69;5052743;28;20036;-82
2023/06/20 01:39:45;;;;;;;10.52;3.35;;;;;;;18.18;59.34;94654.50;5063007;28;20039;-82
2023/06/20 01:42:11;;;;;;;5.93;4.15;;;;;;;18.12;60.70;94643.25;5056173;28;20030;-83
2023/06/20 01:44:38;;;;;;;6.93;3.63;;;;;;;17.97;63.28;94646.31;5043640;28;20416;-83
2023/06/20 01:47:05;;;;;;;5.65;3.05;;;;;;;18.03;62.99;94650.41;5044005;28;20371;-83
2023/06/20 01:49:31;;;;;;;8.43;4.15;;;;;;;17.99;65.17;94652.84;5060038;28;20047;-83
2023/06/20 01:51:58;;;;;;;6.10;3.50;;;;;;;18.12;58.00;94642.47;5043630;28;20032;-83
2023/06/20 01:57:13;;;;;;;7.82;3.30;;;;;;;18.09;61.95;94646.53;5062607;28;20051;-83
2023/06/20 01:59:40;;;;;;;5.78;3.28;;;;;;;18.15;61.58;94639.22;5043294;28;20029;-83
2023/06/20 02:02:06;;;;;;;6.55;3.35;;;;;;;18.16;61.72;94638.91;5043369;28;20035;-83
2023/06/20 02:04:34;;;;;;;8.23;3.97;;;;;;;18.03;67.01;94650.41;5059645;28;20123;-83
2023/06/20 02:07:00;;;;;;;5.45;3.55;;;;;;;17.79;66.56;94654.19;5043305;28;20024;-82
2023/06/20 02:09:45;;;;;;;6.57;3.42;;;;;;;17.72;69.55;94649.34;5043241;28;20031;-82
2023/06/20 02:12:29;;;;;;;5.22;3.28;;;;;;;17.73;67.33;94650.91;5059572;28;20032;-82
2023/06/20 02:14:55;;;;;;;7.15;3.47;;;;;;;17.74;62.65;94649.03;5077331;28;20050;-83
2023/06/20 02:17:21;;;;;;;7.18;3.83;;;;;;;17.80;61.20;94659.19;5043155;28;20064;-83
2023/06/20 02:19:46;;;;;;;6.90;3.58;;;;;;;17.83;61.20;94651.69;5042719;28;20067;-83
2023/06/20 02:22:32;;;;;;;9.68;3.80;;;;;;;17.75;62.33;94654.03;5059394;28;20349;-83
2023/06/20 02:27:53;;;;;;;8.88;3.50;;;;;;;17.82;63.23;94650.94;5062114;28;20085;-83
2023/06/20 02:30:19;;;;;;;7.43;3.63;;;;;;;17.73;62.53;94655.41;5059306;28;20024;-83
2023/06/20 02:32:45;;;;;;;3.92;3.03;;;;;;;17.75;63.34;94655.88;5059267;28;20024;-83
2023/06/20 02:35:12;;;;;;;5.25;3.30;;;;;;;17.82;62.18;94645.63;5059059;28;20050;-83
2023/06/20 02:37:39;;;;;;;7.53;3.83;;;;;;;17.79;65.25;94649.66;5059202;28;20062;-83
2023/06/20 02:40:06;;;;;;;8.15;3.90;;;;;;;17.67;66.78;94655.56;5059056;28;20456;-83
2023/06/20 02:42:31;;;;;;;5.28;3.05;;;;;;;17.67;66.56;94654.75;5055717;28;20040;-83
2023/06/20 02:44:57;;;;;;;7.43;3.42;;;;;;;17.68;68.44;94658.97;5038997;28;20024;-83
2023/06/20 02:53:56;;;;;;;6.43;3.03;;;;;;;17.85;64.13;94660.13;5056834;28;20110;-83
2023/06/20 02:56:23;;;;;;;6.45;3.58;;;;;;;17.90;65.06;94665.31;5056689;28;20442;-83
2023/06/20 02:58:52;;;;;;;7.00;3.30;;;;;;;17.93;64.47;94662.03;5055623;28;20464;-83
2023/06/20 03:01:25;;;;;;;6.40;3.75;;;;;;;17.86;65.20;94667.78;5055417;28;20116;-83
2023/06/20 03:03:53;;;;;;;5.20;3.30;;;;;;;17.81;62.46;94678.53;5055460;28;20031;-83
2023/06/20 03:06:27;;;;;;;5.68;3.40;;;;;;;17.89;64.26;94683.06;5072233;28;20056;-83
2023/06/20 03:09:12;;;;;;;5.82;3.70;;;;;;;17.86;63.59;94677.59;5039603;28;20393;-83
2023/06/20 03:11:37;;;;;;;6.43;3.55;;;;;;;18.04;59.48;94689.06;5055503;28;20056;-83
2023/06/20 03:14:03;;;;;;;4.75;3.08;;;;;;;18.05;61.20;94688.78;5055441;28;20060;-83
2023/06/20 03:16:30;;;;;;;6.40;3.42;;;;;;;18.01;62.20;94690.47;5056626;28;20449;-82
2023/06/20 03:18:56;;;;;;;8.32;3.78;;;;;;;17.98;61.71;94693.69;5050378;28;20085;-83
2023/06/20 03:21:59;;;;;;;6.85;3.53;;;;;;;18.27;58.64;94689.78;5057490;28;20366;-83
2023/06/20 03:24:24;;;;;;;6.10;3.70;;;;;;;18.34;57.35;94691.97;5063551;28;20114;-83
2023/06/20 03:26:50;;;;;;;5.78;3.38;;;;;;;18.41;58.10;94694.16;5038625;28;20468;-83
2023/06/20 03:29:34;;;;;;;7.45;3.70;;;;;;;18.50;58.13;94694.97;5038610;28;20068;-83
2023/06/20 03:32:19;;;;;;;5.63;3.30;;;;;;;18.58;56.76;94701.38;5022348;28;20132;-83
2023/06/20 03:34:45;;;;;;;5.20;3.25;;;;;;;18.47;59.02;94698.25;5026271;28;20342;-82
2023/06/20 03:37:10;;;;;;;9.32;3.38;;;;;;;18.15;64.45;94697.56;5042523;28;20029;-82
2023/06/20 03:39:36;;;;;;;6.18;3.70;;;;;;;17.91;65.08;94696.03;5042466;28;20040;-82
2023/06/20 03:42:01;;;;;;;5.85;3.58;;;;;;;18.03;60.06;94698.13;5026248;28;20127;-83
2023/06/20 03:44:26;;;;;;;10.90;3.60;;;;;;;18.19;58.74;94704.56;5042329;28;20036;-83
2023/06/20 03:46:52;;;;;;;5.30;3.65;;;;;;;18.02;63.92;94699.19;5060223;28;20025;-82
2023/06/20 03:49:17;;;;;;;5.90;3.65;;;;;;;18.16;66.19;94699.13;5060188;28;20060;-83
2023/06/20 03:51:43;;;;;;;7.35;3.50;;;;;;;18.12;61.95;94698.94;5060120;28;20028;-83
2023/06/20 03:54:08;;;;;;;5.55;3.50;;;;;;;18.28;61.50;94701.94;5060081;28;20430;-82
2023/06/20 03:56:33;;;;;;;7.00;3.80;;;;;;;18.39;61.03;94701.66;5042121;28;20028;-83
2023/06/20 03:58:59;;;;;;;7.75;3.40;;;;;;;18.67;66.35;94694.22;5042728;28;20116;-83
2023/06/20 04:01:43;;;;;;;6.55;3.22;;;;;;;19.05;62.60;94700.84;5042359;28;20021;-82
2023/06/20 04:04:29;;;;;;;5.20;3.03;;;;;;;18.95;61.96;94701.91;5042095;28;20032;-82
2023/06/20 04:06:55;;;;;;;8.02;3.03;;;;;;;18.92;61.22;94703.28;5042330;28;20029;-82
2023/06/20 04:09:20;;;;;;;7.18;3.40;;;;;;;18.98;60.31;94697.81;5042012;28;20331;-82
2023/06/20 04:11:46;;;;;;;5.00;3.33;;;;;;;19.24;59.19;94697.84;5042011;28;20037;-83
2023/06/20 04:14:11;;;;;;;5.10;3.00;;;;;;;19.38;59.76;94692.34;5042079;28;20338;-82
2023/06/20 04:16:37;;;;;;;5.50;3.40;;;;;;;19.55;57.06;94691.56;5041879;28;20414;-83
2023/06/20 04:19:40;;;;;;;5.05;3.55;;;;;;;18.99;66.87;94692.25;5041649;28;20430;-83
2023/06/20 04:22:06;;;;;;;7.68;3.72;;;;;;;18.64;65.68;94686.88;5059537;28;20033;-83
2023/06/20 04:24:31;;;;;;;6.35;3.40;;;;;;;19.04;67.79;94689.41;5041675;28;20071;-83
2023/06/20 04:26:56;;;;;;;5.32;3.40;;;;;;;19.40;62.80;94687.50;5025448;28;20438;-83
2023/06/20 04:32:06;;;;;;;6.40;3.50;;;;;;;19.90;61.58;94696.75;5044356;28;20086;-82
2023/06/20 04:34:31;;;;;;;5.03;3.13;;;;;;;19.82;64.02;94689.59;5041853;28;20025;-82
2023/06/20 04:36:57;;;;;;;11.02;4.75;;;;;;;20.10;68.03;94689.22;5041490;28;20028;-83
2023/06/20 04:39:22;;;;;;;4.60;3.13;;;;;;;20.28;64.86;94684.56;5041411;28;20505;-83
2023/06/20 04:41:47;;;;;;;5.45;3.13;;;;;;;20.34;62.17;94691.28;5041600;28;20025;-83
2023/06/20 04:44:13;;;;;;;4.75;2.90;;;;;;;20.50;60.38;94685.41;5040112;28;20033;-83
2023/06/20 04:46:38;;;;;;;603.13;129.30;;;;;;;19.82;66.17;94694.13;5041345;28;20024;-83
2023/06/20 04:49:04;;;;;;;8.05;4.22;;;;;;;19.23;87.96;94685.69;5024946;28;20016;-83
2023/06/20 04:51:29;;;;;;;6.35;3.53;;;;;;;19.08;100.00;94689.59;5024936;28;20029;-83
2023/06/20 04:53:54;;;;;;;9.57;3.58;;;;;;;18.90;100.00;94683.47;5041204;28;20111;-83
2023/06/20 04:56:40;;;;;;;5.18;3.50;;;;;;;19.06;100.00;94687.22;5041235;28;20025;-83
2023/06/20 04:59:09;;;;;;;6.05;3.75;;;;;;;19.04;100.00;94694.72;5058817;28;20029;-83
2023/06/20 05:07:02;;;;;;;41.88;12.00;;;;;;;20.33;93.64;94696.91;5068636;28;20094;-83
2023/06/20 05:12:12;;;;;;;55.10;11.38;;;;;;;20.15;100.00;94694.34;5063495;28;20035;-82
2023/06/20 05:14:37;;;;;;;17.23;5.22;;;;;;;20.27;98.34;94692.88;5077566;28;20024;-82
2023/06/20 05:19:47;;;;;;;9.38;3.72;;;;;;;20.37;89.27;94707.69;5078477;28;20043;-82
2023/06/20 05:25:16;;;;;;;6.83;4.27;;;;;;;19.46;100.00;94702.19;5063207;28;20039;-82
2023/06/20 05:27:42;;;;;;;9.82;4.13;;;;;;;19.45;100.00;94695.34;5060522;28;20032;-83
2023/06/20 05:30:08;;;;;;;11.27;3.88;;;;;;;19.84;100.00;94700.69;5060496;28;20036;-82
2023/06/20 05:35:37;;;;;;;5.43;3.63;;;;;;;20.83;100.00;94707.94;5078206;28;20036;-83
2023/06/20 05:38:03;;;;;;;5.20;3.60;;;;;;;20.89;100.00;94707.41;5075751;28;20354;-83
2023/06/20 05:40:29;;;;;;;4.82;3.58;;;;;;;20.78;92.63;94714.19;5078109;28;20032;-82
2023/06/20 05:42:54;;;;;;;5.93;3.85;;;;;;;20.60;100.00;94713.50;5078092;28;20028;-82
2023/06/20 05:45:19;;;;;;;8.18;4.00;;;;;;;20.37;100.00;94707.69;5060173;28;20438;-82
2023/06/20 05:47:45;;;;;;;190.85;33.30;;;;;;;20.11;100.00;94712.06;5077905;28;20032;-82
2023/06/20 05:50:10;;;;;;;64.82;11.95;;;;;;;20.32;100.00;94719.28;5077910;28;20020;-82
2023/06/20 05:52:36;;;;;;;7.43;3.95;;;;;;;20.40;100.00;94713.16;5060057;28;20040;-83
2023/06/20 05:55:02;;;;;;;146.75;26.35;;;;;;;21.02;100.00;94718.13;5059543;28;20028;-82
2023/06/20 05:57:28;;;;;;;12.13;4.60;;;;;;;21.59;100.00;94710.53;5059912;28;20074;-82
2023/06/20 05:59:53;;;;;;;7.50;3.67;;;;;;;21.87;100.00;94710.75;5076690;28;20028;-82
2023/06/20 06:02:37;;;;;;;15.88;5.00;;;;;;;21.26;100.00;94719.31;5059841;28;20035;-82
2023/06/20 06:08:25;;;;;;;6.32;3.72;;;;;;;22.26;100.00;94715.78;5062487;28;20169;-82
2023/06/20 06:11:09;;;;;;;4.57;3.07;;;;;;;22.35;100.00;94718.34;5077516;28;20035;-82
2023/06/20 06:13:34;;;;;;;6.57;3.25;;;;;;;22.57;100.00;94708.38;5077482;28;20028;-82
2023/06/20 06:16:00;;;;;;;9.02;4.32;;;;;;;21.89;100.00;94711.22;5077344;28;20036;-82
2023/06/20 06:18:44;;;;;;;10.30;4.30;;;;;;;21.53;100.00;94709.22;5059324;28;20032;-82
2023/06/20 06:21:10;;;;;;;5.68;3.75;;;;;;;22.45;100.00;94717.13;5077294;28;20078;-82
2023/06/20 06:23:54;;;;;;;6.60;3.72;;;;;;;22.69;100.00;94710.25;5077217;28;20024;-82
2023/06/20 06:26:20;;;;;;;4.80;3.47;;;;;;;22.71;100.00;94719.47;5059304;28;20073;-84
2023/06/20 06:28:45;;;;;;;6.05;3.72;;;;;;;22.23;100.00;94715.69;5059224;28;20028;-83
2023/06/20 06:31:14;;;;;;;6.35;3.72;;;;;;;22.77;100.00;94711.22;5077688;28;20028;-83
2023/06/20 06:33:41;;;;;;;6.43;3.38;;;;;;;22.88;96.78;94715.00;5042933;28;20064;-83
2023/06/20 06:36:08;;;;;;;6.60;3.53;;;;;;;22.92;94.87;94723.88;5042498;28;20063;-83
2023/06/20 06:41:18;;;;;;;7.10;3.95;;;;;;;22.05;100.00;94728.47;5061871;28;20027;-83
2023/06/20 06:44:02;;;;;;;6.60;3.70;;;;;;;21.75;100.00;94737.41;5075798;28;20016;-83
2023/06/20 06:46:27;;;;;;;4.97;3.58;;;;;;;22.45;100.00;94739.25;5075586;28;20024;-83
2023/06/20 06:48:53;;;;;;;4.68;3.38;;;;;;;23.07;100.00;94748.34;5076793;28;20103;-83
2023/06/20 06:51:18;;;;;;;6.63;3.63;;;;;;;23.27;100.00;94744.75;5058892;28;20031;-83
2023/06/20 06:53:43;;;;;;;8.95;3.65;;;;;;;23.43;99.57;94746.69;5076855;28;20043;-83
2023/06/20 06:56:09;;;;;;;5.78;3.78;;;;;;;23.51;80.16;94750.34;5075424;28;20024;-83
2023/06/20 07:01:38;;;;;;;4.93;3.63;;;;;;;23.04;90.37;94744.47;5077108;28;20078;-83
2023/06/20 07:04:06;;;;;;;5.28;3.22;;;;;;;22.79;96.55;94747.16;5059338;28;20060;-83
2023/06/20 07:07:09;;;;;;;6.78;3.40;;;;;;;22.43;100.00;94746.84;5059227;28;20032;-83
2023/06/20 07:09:36;;;;;;;6.90;3.83;;;;;;;22.29;100.00;94738.38;5058913;28;20119;-83
2023/06/20 07:12:20;;;;;;;5.82;3.40;;;;;;;23.28;94.00;94740.97;5059334;28;20151;-83
2023/06/20 07:14:46;;;;;;;6.85;3.60;;;;;;;23.65;81.82;94744.59;5076551;28;20028;-84
2023/06/20 07:17:11;;;;;;;5.63;2.90;;;;;;;23.69;91.72;94748.91;5041876;28;20020;-84
2023/06/20 07:19:37;;;;;;;6.65;3.58;;;;;;;23.73;95.54;94749.00;5041829;28;20441;-84
2023/06/20 07:22:05;;;;;;;9.70;3.45;;;;;;;23.59;93.33;94752.06;5058597;28;20024;-84
2023/06/20 07:24:30;;;;;;;8.60;3.70;;;;;;;23.79;79.72;94746.88;5076050;28;20025;-84
2023/06/20 07:26:55;;;;;;;6.20;3.53;;;;;;;23.80;83.62;94753.78;5075240;28;20353;-84
2023/06/20 07:29:40;;;;;;;5.10;3.60;;;;;;;23.63;100.00;94758.31;5058570;28;20078;-84
2023/06/20 07:32:05;;;;;;;9.35;4.13;;;;;;;23.11;85.94;94768.69;5058569;28;20430;-84
2023/06/20 07:34:49;;;;;;;8.77;3.50;;;;;;;23.16;77.93;94771.13;5076549;28;20070;-84
2023/06/20 07:37:15;;;;;;;6.97;3.40;;;;;;;23.93;81.54;94768.63;5076340;28;20027;-83
2023/06/20 07:39:42;;;;;;;6.00;4.03;;;;;;;24.20;67.60;94763.59;5058452;28;20021;-84
2023/06/20 07:42:11;;;;;;;6.28;3.47;;;;;;;23.49;80.57;94766.72;5058622;28;20433;-84
2023/06/20 07:44:37;;;;;;;4.97;3.55;;;;;;;23.88;71.57;94768.88;5057958;28;20426;-84
2023/06/20 07:47:02;;;;;;;6.38;3.83;;;;;;;24.29;77.95;94768.78;5058438;28;20024;-84
2023/06/20 07:49:30;;;;;;;4.20;3.10;;;;;;;24.29;82.61;94768.78;5058406;28;20027;-84
2023/06/20 07:52:14;;;;;;;4.20;3.50;;;;;;;24.70;75.69;94766.69;5058749;28;20039;-84
2023/06/20 07:55:01;;;;;;;7.03;3.72;;;;;;;24.53;78.25;94762.47;5057996;28;20078;-84
2023/06/20 08:05:58;;;;;;;5.80;3.72;;;;;;;24.52;96.57;94778.88;5075967;28;20056;-84
2023/06/20 08:10:23;;;;;;;10.20;3.65;;;;;;;24.61;91.58;94784.06;5115156;27;20387;-82
2023/06/20 08:12:48;;;;;;;5.80;3.90;;;;;;;24.77;84.78;94781.38;5096659;28;20027;-83
2023/06/20 08:15:32;;;;;;;7.88;3.88;;;;;;;25.21;82.95;94783.09;5096421;28;20076;-83
2023/06/20 08:17:58;;;;;;;5.20;3.55;;;;;;;25.04;75.31;94782.38;5113550;28;20318;-83
2023/06/20 08:20:23;;;;;;;6.90;4.00;;;;;;;25.48;81.58;94786.72;5113297;28;20077;-84
2023/06/20 08:22:48;;;;;;;7.25;3.85;;;;;;;25.50;90.67;94784.47;5114320;28;20370;-83
2023/06/20 08:25:14;;;;;;;7.20;3.70;;;;;;;25.54;74.00;94785.34;5095965;28;20131;-84
2023/06/20 08:27:59;;;;;;;4.45;3.25;;;;;;;25.91;80.63;94797.50;5113320;28;20019;-83
2023/06/20 08:30:25;;;;;;;6.65;4.18;;;;;;;25.43;80.95;94784.31;5113504;28;20089;-84
2023/06/20 08:32:50;;;;;;;5.65;3.67;;;;;;;25.64;76.31;94785.88;5113007;28;20119;-83
2023/06/20 08:35:16;;;;;;;6.40;3.95;;;;;;;25.72;75.23;94786.78;5112720;28;20039;-84
2023/06/20 08:38:00;;;;;;;6.93;3.63;;;;;;;25.77;75.37;94791.88;5112966;28;20038;-83
2023/06/20 08:43:29;;;;;;;10.20;4.10;;;;;;;25.04;75.81;94795.00;5112140;28;20035;-83
2023/06/20 08:45:55;;;;;;;11.70;4.70;;;;;;;25.48;80.95;94788.63;5112346;28;20525;-82
2023/06/20 08:48:41;;;;;;;8.95;4.20;;;;;;;25.06;68.42;94795.41;5112683;28;20344;-82
2023/06/20 08:51:25;;;;;;;6.15;3.90;;;;;;;25.11;72.33;94790.56;5112617;28;20147;-82
2023/06/20 08:54:16;;;;;;;8.13;3.95;;;;;;;25.08;64.95;94788.59;5112839;28;20024;-83
2023/06/20 08:56:43;;;;;;;6.22;3.88;;;;;;;25.05;67.77;94797.31;5113705;28;20028;-82
2023/06/20 08:59:27;;;;;;;8.20;4.03;;;;;;;25.17;65.79;94787.59;5095712;28;20062;-83
2023/06/20 09:02:11;;;;;;;6.88;3.85;;;;;;;25.25;69.83;94783.94;5112524;28;20347;-83
2023/06/20 09:05:05;;;;;;;8.52;3.63;;;;;;;25.37;66.16;94780.34;5113171;28;20024;-83
2023/06/20 09:07:38;;;;;;;8.57;3.70;;;;;;;25.37;67.65;94777.66;5112415;28;20024;-83
2023/06/20 09:10:08;;;;;;;5.47;3.63;;;;;;;25.44;63.31;94779.72;5112179;28;20455;-82
2023/06/20 09:13:06;;;;;;;7.72;3.78;;;;;;;26.04;65.80;94791.97;5095480;28;20034;-82
2023/06/20 09:15:33;;;;;;;6.68;4.07;;;;;;;25.91;74.16;94791.34;5113638;28;20039;-82
2023/06/20 09:18:17;;;;;;;9.32;4.35;;;;;;;26.48;68.60;94783.53;5112137;28;20051;-82
2023/06/20 09:20:43;;;;;;;5.07;3.58;;;;;;;25.82;67.29;94784.31;5104657;28;20066;-83
2023/06/20 09:23:08;;;;;;;6.25;3.40;;;;;;;25.85;64.72;94780.13;5098648;28;20055;-83
2023/06/20 09:25:36;;;;;;;5.80;3.90;;;;;;;25.63;60.65;94774.38;5098383;28;20035;-82
2023/06/20 09:28:02;;;;;;;11.48;4.25;;;;;;;25.33;65.15;94774.94;5098611;28;20035;-83
2023/06/20 09:30:48;;;;;;;6.32;3.75;;;;;;;25.20;68.71;94774.25;5096326;28;20440;-82
2023/06/20 09:33:15;;;;;;;39.10;5.47;;;;;;;25.24;65.79;94777.78;5073684;28;20036;-82
2023/06/20 09:35:41;;;;;;;5.93;3.78;;;;;;;25.24;66.41;94777.03;5090746;28;20028;-82
2023/06/20 09:38:06;;;;;;;6.13;4.13;;;;;;;25.54;65.73;94779.97;5061477;28;20031;-82
2023/06/20 09:40:42;;;;;;;5.65;4.00;;;;;;;25.69;64.52;94780.25;5086726;28;20117;-82
2023/06/20 09:45:52;;;;;;;8.18;4.32;;;;;;;25.55;64.02;94775.38;5099113;28;20038;-83
2023/06/20 09:48:36;;;;;;;7.50;4.55;;;;;;;25.77;67.20;94773.09;5097884;28;20028;-82
2023/06/20 09:51:21;;;;;;;5.40;3.80;;;;;;;25.74;68.05;94774.56;5099333;28;20096;-82
2023/06/20 09:53:59;;;;;;;7.10;4.07;;;;;;;25.93;63.37;94781.03;5099064;28;20035;-83
2023/06/20 09:56:25;;;;;;;6.53;3.83;;;;;;;26.06;64.30;94774.38;5097721;28;20031;-83
2023/06/20 09:58:51;;;;;;;7.10;4.22;;;;;;;26.35;52.42;94771.44;5097791;28;20028;-83
2023/06/20 10:01:20;;;;;;;11.05;3.97;;;;;;;26.02;54.65;94768.16;5097753;28;20028;-82
2023/06/20 10:03:46;;;;;;;9.10;3.85;;;;;;;26.41;63.35;94775.34;5081552;28;20032;-83
2023/06/20 10:08:57;;;;;;;12.30;4.38;;;;;;;26.90;57.00;94757.69;5097647;28;20055;-83
2023/06/20 10:11:22;;;;;;;5.22;3.50;;;;;;;26.66;60.77;94765.00;5097574;28;20032;-83
2023/06/20 10:14:06;;;;;;;6.22;3.80;;;;;;;26.60;56.69;94761.06;5097446;28;20024;-83
2023/06/20 10:16:32;;;;;;;8.05;4.20;;;;;;;26.71;58.54;94745.09;5097308;28;20421;-82
2023/06/20 10:18:57;;;;;;;5.35;3.63;;;;;;;26.62;56.42;94750.72;5080660;28;20024;-82
2023/06/20 10:21:54;;;;;;;5.85;3.90;;;;;;;26.85;64.53;94747.22;5097373;28;20534;-83
2023/06/20 10:24:20;;;;;;;5.93;3.72;;;;;;;27.04;58.32;94745.56;5097275;28;20024;-85
2023/06/20 10:27:23;;;;;;;9.88;3.58;;;;;;;26.82;62.27;94750.63;5080441;28;20031;-83
2023/06/20 10:29:51;;;;;;;8.38;3.60;;;;;;;26.61;55.04;94749.19;5098147;28;20486;-83
2023/06/20 10:38:51;;;;;;;6.53;3.70;;;;;;;27.18;59.40;94753.03;5076871;28;20055;-82
2023/06/20 10:47:11;;;;;;;8.50;4.13;;;;;;;26.94;57.25;94755.06;5076783;28;20538;-85
2023/06/20 10:49:36;;;;;;;7.95;3.90;;;;;;;27.06;55.64;94764.78;5077703;28;20021;-85
2023/06/20 10:55:05;;;;;;;6.63;3.55;;;;;;;27.40;57.48;94758.69;5076188;28;20181;-83
2023/06/20 10:57:49;;;;;;;5.95;3.78;;;;;;;26.98;59.55;94752.41;5077566;28;20120;-83
2023/06/20 11:03:20;;;;;;;7.37;4.07;;;;;;;27.35;55.76;94752.50;5077556;28;20108;-82
2023/06/20 11:05:50;;;;;;;5.22;3.70;;;;;;;27.18;57.34;94756.50;5076156;28;20055;-83
2023/06/20 11:08:25;;;;;;;4.78;3.53;;;;;;;27.99;52.76;94750.88;5075915;28;20141;-85
2023/06/20 11:11:10;;;;;;;5.70;3.92;;;;;;;28.21;52.31;94753.78;5059620;28;20033;-83
2023/06/20 11:14:00;;;;;;;10.13;3.60;;;;;;;28.35;58.81;94748.50;5076347;28;20025;-83
2023/06/20 11:16:47;;;;;;;6.93;3.72;;;;;;;28.16;58.79;94768.34;5076107;28;20077;-85
2023/06/20 11:19:14;;;;;;;7.40;3.35;;;;;;;27.99;52.98;94758.19;5076015;28;20086;-83
2023/06/20 11:21:40;;;;;;;10.05;3.80;;;;;;;28.34;54.47;94762.38;5075949;28;20028;-83
2023/06/20 11:24:06;;;;;;;8.00;4.57;;;;;;;28.42;52.55;94761.28;5075882;28;20071;-83
2023/06/20 11:27:09;;;;;;;6.10;3.67;;;;;;;28.46;53.99;94758.59;5075532;28;20476;-85
2023/06/20 11:29:37;;;;;;;6.53;3.77;;;;;;;28.92;54.70;94750.06;5075969;28;20075;-83
2023/06/20 11:32:10;;;;;;;8.57;3.40;;;;;;;28.70;52.46;94751.84;5059363;28;20275;-83
2023/06/20 11:34:56;;;;;;;4.75;3.50;;;;;;;28.12;51.64;94759.47;5075662;28;20107;-84
2023/06/20 11:37:42;;;;;;;6.85;3.67;;;;;;;28.44;52.05;94752.81;5059101;28;20028;-83
2023/06/20 11:40:30;;;;;;;6.43;3.65;;;;;;;28.65;56.11;94750.28;5075538;28;20028;-85
2023/06/20 11:42:55;;;;;;;9.38;3.63;;;;;;;28.52;58.25;94745.56;5076563;28;20032;-83
2023/06/20 11:45:25;;;;;;;7.43;3.63;;;;;;;28.15;59.47;94747.94;5075560;28;20353;-85
2023/06/20 11:48:11;;;;;;;4.53;3.80;;;;;;;27.85;57.16;94745.38;5058912;28;20039;-83
2023/06/20 11:50:56;;;;;;;13.48;3.55;;;;;;;28.29;55.21;94733.06;5075613;28;20028;-83
2023/06/20 11:53:25;;;;;;;7.57;3.92;;;;;;;28.30;58.35;94738.09;5075512;28;20431;-83
2023/06/20 11:55:54;;;;;;;6.90;3.92;;;;;;;27.87;58.88;94740.38;5075141;28;20125;-84
2023/06/20 11:58:20;;;;;;;7.80;3.58;;;;;;;27.96;60.28;94738.16;5058762;28;20025;-85
2023/06/20 12:00:47;;;;;;;6.30;3.70;;;;;;;27.93;58.93;94739.69;5075509;28;20318;-85
2023/06/20 12:03:18;;;;;;;8.40;4.00;;;;;;;27.92;60.28;94737.34;5075383;28;20384;-85
2023/06/20 12:05:44;;;;;;;6.60;3.97;;;;;;;27.99;60.54;94725.88;5075304;28;20028;-84
2023/06/20 12:08:09;;;;;;;7.28;3.72;;;;;;;27.89;58.41;94725.38;5075230;28;20028;-83
2023/06/20 12:10:39;;;;;;;5.72;3.67;;;;;;;28.07;61.07;94722.09;5075674;28;20115;-85
2023/06/20 12:13:23;;;;;;;6.45;3.75;;;;;;;28.41;57.87;94721.25;5075385;28;20119;-85
2023/06/20 12:15:48;;;;;;;9.88;3.85;;;;;;;28.33;60.95;94723.88;5076430;28;20483;-83
2023/06/20 12:18:14;;;;;;;9.10;3.60;;;;;;;28.62;56.54;94723.28;5085244;28;20040;-84
2023/06/20 12:20:58;;;;;;;5.20;3.20;;;;;;;28.27;58.86;94714.59;5082447;28;20043;-84
2023/06/20 12:23:42;;;;;;;5.95;3.80;;;;;;;28.06;56.57;94720.56;5076377;28;20025;-84
2023/06/20 12:28:52;;;;;;;8.85;3.80;;;;;;;28.58;58.68;94719.81;5075261;28;20027;-85
2023/06/20 12:34:01;;;;;;;7.88;3.63;;;;;;;29.03;56.98;94717.75;5075375;28;20031;-83
2023/06/20 12:36:46;;;;;;;5.97;3.60;;;;;;;29.18;60.25;94724.00;5074741;28;20353;-85
2023/06/20 12:39:11;;;;;;;8.32;4.13;;;;;;;29.10;56.04;94722.41;5075297;28;20036;-85
2023/06/20 12:41:37;;;;;;;5.25;3.38;;;;;;;29.12;55.60;94719.34;5075219;28;20334;-85
2023/06/20 12:46:47;;;;;;;7.43;4.18;;;;;;;29.18;57.05;94720.53;5075189;28;20032;-85
2023/06/20 12:52:15;;;;;;;5.63;3.72;;;;;;;29.46;52.73;94721.81;5075231;28;20395;-83
2023/06/20 12:54:40;;;;;;;5.00;3.53;;;;;;;29.60;53.52;94726.50;5081859;28;20028;-82
2023/06/20 12:57:06;;;;;;;6.13;3.78;;;;;;;30.03;58.41;94729.28;5099098;28;20024;-83
2023/06/20 12:59:31;;;;;;;6.43;3.85;;;;;;;29.67;50.94;94725.72;5092407;28;20098;-83
2023/06/20 13:01:57;;;;;;;7.75;3.60;;;;;;;29.70;54.57;94723.06;5079844;28;20024;-83
2023/06/20 13:04:22;;;;;;;10.73;3.92;;;;;;;30.02;58.31;94722.31;5078487;28;20024;-82
2023/06/20 13:09:32;;;;;;;8.60;3.70;;;;;;;29.62;53.85;94726.88;5078558;28;20110;-83
2023/06/20 13:11:57;;;;;;;4.78;3.42;;;;;;;29.84;54.95;94722.28;5079694;28;20119;-82
2023/06/20 13:14:42;;;;;;;10.30;3.88;;;;;;;30.73;48.80;94722.69;5078075;28;20020;-83
2023/06/20 13:17:08;;;;;;;4.40;3.33;;;;;;;29.67;52.60;94721.09;5062179;28;20055;-82
2023/06/20 13:19:33;;;;;;;5.78;3.67;;;;;;;29.92;50.93;94728.47;5061854;28;20420;-82
2023/06/20 13:21:59;;;;;;;7.05;3.95;;;;;;;29.66;50.91;94722.25;5063508;28;20032;-83
2023/06/20 13:24:24;;;;;;;5.32;3.17;;;;;;;30.59;51.13;94722.69;5098384;28;20028;-82
2023/06/20 13:27:09;;;;;;;7.63;3.30;;;;;;;30.97;54.14;94714.13;5098662;28;20451;-82
2023/06/20 13:29:35;;;;;;;5.32;3.80;;;;;;;31.70;50.93;94711.91;5098636;28;20107;-83
2023/06/20 13:32:02;;;;;;;11.18;3.30;;;;;;;31.84;48.31;94711.84;5098354;28;20113;-83
2023/06/20 13:34:27;;;;;;;5.05;3.33;;;;;;;31.45;43.17;94705.47;5097886;28;20024;-82